Time;durP1;ratioP1;P1;durP2;ratioP2;P2;SDS_P1;SDS_P2;PMS_P1;PMS_P2;Temp;Humidity;BMP_temperature;BMP_pressure;BME280_temperature;BME280_humidity;BME280_pressure;Samples;Min_cycle;Max_cycle;Signal;HPM_P1;HPM_P2
2023/01/03 00:00:09;;;;;;;5.22;1.20;;;;;;;;;;5152411;27;20026;-69
2023/01/03 00:02:35;;;;;;;2.92;1.20;;;;;;;;;;5152422;27;20105;-71
2023/01/03 00:05:00;;;;;;;4.18;1.13;;;;;;;;;;5152327;27;20061;-72
2023/01/03 00:07:34;;;;;;;2.92;1.10;;;;;;;;;;5152347;27;20630;-70
2023/01/03 00:10:02;;;;;;;4.22;1.40;;;;;;;;;;5152176;27;20145;-74
2023/01/03 00:12:28;;;;;;;3.42;1.30;;;;;;;;;;5151958;27;20075;-75
2023/01/03 00:14:54;;;;;;;4.15;1.10;;;;;;;;;;5152122;27;20121;-74
2023/01/03 00:17:19;;;;;;;4.78;1.40;;;;;;;;;;5151926;27;20164;-74
2023/01/03 00:19:45;;;;;;;4.38;1.50;;;;;;;;;;5150982;27;20056;-75
2023/01/03 00:22:12;;;;;;;5.25;1.40;;;;;;;;;;5152189;27;20026;-72
2023/01/03 00:24:38;;;;;;;4.72;1.50;;;;;;;;;;5152056;27;20030;-74
2023/01/03 00:27:04;;;;;;;3.33;1.15;;;;;;;;;;5152147;27;20019;-76
2023/01/03 00:29:29;;;;;;;4.93;1.60;;;;;;;;;;5150528;27;20030;-74
2023/01/03 00:31:55;;;;;;;4.85;1.58;;;;;;;;;;5151795;27;20072;-75
2023/01/03 00:34:21;;;;;;;4.65;1.80;;;;;;;;;;5151663;27;20027;-74
2023/01/03 00:36:47;;;;;;;6.85;1.58;;;;;;;;;;5151980;27;20019;-75
2023/01/03 00:39:13;;;;;;;4.97;1.88;;;;;;;;;;5151967;27;20105;-75
2023/01/03 00:41:38;;;;;;;3.75;1.60;;;;;;;;;;5152071;27;20043;-72
2023/01/03 00:44:03;;;;;;;4.93;2.33;;;;;;;;;;5151905;27;20078;-75
2023/01/03 00:46:29;;;;;;;6.28;2.25;;;;;;;;;;5151781;27;20049;-75
2023/01/03 00:48:54;;;;;;;5.68;2.40;;;;;;;;;;5151287;27;20404;-74
2023/01/03 00:51:26;;;;;;;5.85;2.67;;;;;;;;;;5151771;27;20082;-73
2023/01/03 00:53:56;;;;;;;5.85;2.40;;;;;;;;;;5151912;27;20027;-73
2023/01/03 00:56:24;;;;;;;7.55;2.63;;;;;;;;;;5151719;27;20110;-75
2023/01/03 00:58:50;;;;;;;8.43;3.00;;;;;;;;;;5151654;27;20031;-74
2023/01/03 01:01:15;;;;;;;5.35;2.75;;;;;;;;;;5151775;27;20405;-72
2023/01/03 01:03:44;;;;;;;7.43;2.60;;;;;;;;;;5151768;27;20022;-76
2023/01/03 01:06:34;;;;;;;8.93;2.78;;;;;;;;;;5151985;27;20058;-73
2023/01/03 01:09:01;;;;;;;4.97;2.88;;;;;;;;;;5151474;27;20027;-74
2023/01/03 01:11:27;;;;;;;6.88;3.28;;;;;;;;;;5151530;27;20022;-75
2023/01/03 01:13:53;;;;;;;7.25;3.38;;;;;;;;;;5151487;27;20023;-75
2023/01/03 01:16:21;;;;;;;7.50;3.42;;;;;;;;;;5150229;27;20488;-75
2023/01/03 01:18:48;;;;;;;7.28;3.60;;;;;;;;;;5151287;27;20111;-74
2023/01/03 01:21:26;;;;;;;7.90;4.07;;;;;;;;;;5150560;27;20027;-72
2023/01/03 01:23:52;;;;;;;7.88;4.28;;;;;;;;;;5151538;27;20502;-75
2023/01/03 01:26:20;;;;;;;11.52;4.25;;;;;;;;;;5151618;27;20025;-75
2023/01/03 01:28:45;;;;;;;7.65;4.32;;;;;;;;;;5151130;27;20064;-72
2023/01/03 01:31:14;;;;;;;10.30;4.32;;;;;;;;;;5154142;27;20055;-74
2023/01/03 01:33:39;;;;;;;10.23;4.60;;;;;;;;;;5153516;27;20033;-70
2023/01/03 01:36:19;;;;;;;8.05;4.68;;;;;;;;;;5155102;27;20023;-75
2023/01/03 01:38:46;;;;;;;10.93;4.87;;;;;;;;;;5154921;27;20031;-73
2023/01/03 01:44:36;;;;;;;8.90;4.75;;;;;;;;;;5155246;27;20030;-73
2023/01/03 01:46:46;;;;;;;11.02;5.38;;;;;;;;;;5155068;27;20122;-73
2023/01/03 01:49:18;;;;;;;11.18;5.18;;;;;;;;;;5154465;27;20034;-74
2023/01/03 01:51:43;;;;;;;9.13;5.00;;;;;;;;;;5154815;27;20027;-73
2023/01/03 01:54:09;;;;;;;8.88;4.80;;;;;;;;;;5154867;27;20041;-74
2023/01/03 01:56:56;;;;;;;10.50;5.55;;;;;;;;;;5154862;27;20113;-71
2023/01/03 01:59:21;;;;;;;11.70;5.53;;;;;;;;;;5154235;27;20051;-75
2023/01/03 02:01:47;;;;;;;8.52;4.93;;;;;;;;;;5154749;27;20019;-68
2023/01/03 02:04:20;;;;;;;10.50;5.22;;;;;;;;;;5154496;27;20114;-74
2023/01/03 02:06:46;;;;;;;10.82;5.30;;;;;;;;;;5154479;27;20157;-67
2023/01/03 02:09:12;;;;;;;8.55;4.78;;;;;;;;;;5154150;27;20057;-68
2023/01/03 02:14:42;;;;;;;11.32;4.90;;;;;;;;;;5154588;27;20107;-71
2023/01/03 02:17:49;;;;;;;9.55;4.70;;;;;;;;;;5154656;27;20152;-68
2023/01/03 02:20:35;;;;;;;11.20;5.18;;;;;;;;;;5154339;27;20406;-67
2023/01/03 02:23:32;;;;;;;10.68;4.80;;;;;;;;;;5154316;27;20026;-67
2023/01/03 02:26:23;;;;;;;9.30;4.65;;;;;;;;;;5154169;27;20122;-67
2023/01/03 02:28:48;;;;;;;8.15;4.53;;;;;;;;;;5153674;27;20030;-68
2023/01/03 02:31:34;;;;;;;8.10;4.50;;;;;;;;;;5153901;27;20029;-69
2023/01/03 02:34:20;;;;;;;11.25;4.32;;;;;;;;;;5153806;27;20027;-67
2023/01/03 02:36:59;;;;;;;7.07;4.28;;;;;;;;;;5121658;27;20030;-69
2023/01/03 02:39:32;;;;;;;8.55;4.55;;;;;;;;;;5153702;27;20084;-69
2023/01/03 02:45:19;;;;;;;8.60;4.20;;;;;;;;;;5153545;27;20130;-69
2023/01/03 02:48:00;;;;;;;7.80;3.92;;;;;;;;;;5153488;27;20031;-69
2023/01/03 02:50:28;;;;;;;;;;;;;;;;;;5154089;27;20075;-67
2023/01/03 02:52:59;;;;;;;9.25;4.25;;;;;;;;;;5153615;27;20007;-68
2023/01/03 02:55:27;;;;;;;7.78;4.20;;;;;;;;;;5153701;27;20049;-68
2023/01/03 02:58:01;;;;;;;10.77;4.40;;;;;;;;;;5153650;27;20386;-72
2023/01/03 03:00:29;;;;;;;8.73;4.38;;;;;;;;;;5153524;27;20071;-74
2023/01/03 03:03:05;;;;;;;10.20;4.28;;;;;;;;;;5153366;27;20035;-73
2023/01/03 03:05:40;;;;;;;12.45;4.63;;;;;;;;;;5153388;27;20533;-74
2023/01/03 03:08:06;;;;;;;9.73;4.93;;;;;;;;;;5153108;27;20023;-73
2023/01/03 03:13:29;;;;;;;11.32;4.90;;;;;;;;;;5153227;27;20038;-75
2023/01/03 03:16:06;;;;;;;8.95;4.50;;;;;;;;;;5152122;27;20032;-74
2023/01/03 03:18:57;;;;;;;8.90;4.68;;;;;;;;;;5152954;27;20030;-76
2023/01/03 03:28:33;;;;;;;11.40;4.80;;;;;;;;;;5153103;27;20087;-74
2023/01/03 03:29:56;;;;;;;10.55;4.75;;;;;;;;;;5152533;27;20505;-74
2023/01/03 03:32:24;;;;;;;7.47;4.25;;;;;;;;;;5152743;27;20434;-72
2023/01/03 03:34:51;;;;;;;10.57;4.60;;;;;;;;;;5152725;27;20030;-75
2023/01/03 03:37:20;;;;;;;8.63;4.00;;;;;;;;;;5152852;27;20492;-74
2023/01/03 03:45:28;;;;;;;8.10;4.57;;;;;;;;;;5152354;27;20558;-73
2023/01/03 03:47:54;;;;;;;8.45;4.18;;;;;;;;;;5152099;27;20025;-71
2023/01/03 03:50:35;;;;;;;7.20;4.38;;;;;;;;;;5152250;27;20023;-72
2023/01/03 03:53:05;;;;;;;8.18;4.30;;;;;;;;;;5152298;27;20070;-74
2023/01/03 03:55:46;;;;;;;10.05;4.35;;;;;;;;;;5152499;27;20031;-75
2023/01/03 03:58:16;;;;;;;8.98;4.32;;;;;;;;;;5152643;27;20030;-76
2023/01/03 04:00:43;;;;;;;9.43;4.35;;;;;;;;;;5152308;27;20022;-76
2023/01/03 04:03:10;;;;;;;9.60;4.47;;;;;;;;;;5152450;27;20026;-75
2023/01/03 04:05:39;;;;;;;8.48;4.25;;;;;;;;;;5152219;27;20046;-75
2023/01/03 04:08:06;;;;;;;9.17;4.27;;;;;;;;;;5152352;27;20513;-73
2023/01/03 04:10:31;;;;;;;6.85;3.95;;;;;;;;;;5151937;27;20181;-72
2023/01/03 04:12:56;;;;;;;10.50;4.65;;;;;;;;;;5152092;27;20489;-72
2023/01/03 04:15:22;;;;;;;8.55;4.13;;;;;;;;;;5152326;27;20026;-73
2023/01/03 04:17:50;;;;;;;7.57;3.90;;;;;;;;;;5152332;27;20042;-74
2023/01/03 04:20:16;;;;;;;10.23;4.10;;;;;;;;;;5151868;27;20103;-72
2023/01/03 04:22:41;;;;;;;10.35;3.95;;;;;;;;;;5150726;27;20060;-75
2023/01/03 04:25:07;;;;;;;8.80;3.90;;;;;;;;;;5152045;27;20030;-74
2023/01/03 04:27:33;;;;;;;9.25;4.25;;;;;;;;;;5151920;27;20417;-72
2023/01/03 04:29:58;;;;;;;8.57;4.03;;;;;;;;;;5151882;27;20027;-72
2023/01/03 04:32:24;;;;;;;9.57;4.00;;;;;;;;;;5150613;27;20031;-77
2023/01/03 04:34:49;;;;;;;7.80;4.00;;;;;;;;;;5151961;27;20031;-76
2023/01/03 04:37:14;;;;;;;8.55;4.43;;;;;;;;;;5152275;27;20019;-75
2023/01/03 04:39:40;;;;;;;8.95;4.30;;;;;;;;;;5151908;27;20022;-74
2023/01/03 04:44:00;;;;;;;11.23;4.10;;;;;;;;;;5152022;27;20023;-75
2023/01/03 04:44:51;;;;;;;8.90;4.65;;;;;;;;;;5151549;27;20046;-75
2023/01/03 04:47:16;;;;;;;10.80;4.07;;;;;;;;;;5151611;27;20438;-73
2023/01/03 04:49:46;;;;;;;8.18;3.58;;;;;;;;;;5151470;27;20057;-74
2023/01/03 04:52:15;;;;;;;6.50;3.63;;;;;;;;;;5151868;27;20027;-75
2023/01/03 04:54:41;;;;;;;7.65;2.72;;;;;;;;;;5151758;27;20818;-75
2023/01/03 04:57:07;;;;;;;6.65;2.75;;;;;;;;;;5150671;27;20019;-75
2023/01/03 04:59:32;;;;;;;6.18;3.00;;;;;;;;;;5151679;27;20027;-75
2023/01/03 05:01:58;;;;;;;8.25;2.78;;;;;;;;;;5151684;27;20061;-73
2023/01/03 05:04:23;;;;;;;8.00;2.47;;;;;;;;;;5151649;27;20022;-75
2023/01/03 05:06:51;;;;;;;5.57;2.50;;;;;;;;;;5155405;27;20587;-72
2023/01/03 05:09:17;;;;;;;5.53;2.50;;;;;;;;;;5155262;27;20030;-72
2023/01/03 05:11:42;;;;;;;6.00;2.38;;;;;;;;;;5155444;27;20355;-72
2023/01/03 05:14:08;;;;;;;7.07;2.67;;;;;;;;;;5155625;27;20042;-75
2023/01/03 05:16:33;;;;;;;5.97;2.58;;;;;;;;;;5155496;27;20470;-75
2023/01/03 05:18:58;;;;;;;6.47;2.40;;;;;;;;;;5155326;27;20019;-74
2023/01/03 05:26:58;;;;;;;6.50;2.78;;;;;;;;;;5155526;27;20119;-68
2023/01/03 05:29:24;;;;;;;6.28;2.50;;;;;;;;;;5155123;27;20026;-67
2023/01/03 05:31:49;;;;;;;6.28;2.58;;;;;;;;;;5155155;27;20019;-69
2023/01/03 05:34:15;;;;;;;7.15;2.72;;;;;;;;;;5155086;27;20058;-67
2023/01/03 05:36:40;;;;;;;7.65;2.25;;;;;;;;;;5155223;27;20018;-68
2023/01/03 05:39:06;;;;;;;6.63;2.90;;;;;;;;;;5155262;27;20047;-72
2023/01/03 05:44:16;;;;;;;6.50;2.80;;;;;;;;;;5155031;27;20450;-76
2023/01/03 05:46:41;;;;;;;7.53;2.60;;;;;;;;;;5154620;27;20030;-76
2023/01/03 05:49:07;;;;;;;6.85;2.42;;;;;;;;;;5154591;27;20034;-70
2023/01/03 05:51:32;;;;;;;7.28;2.47;;;;;;;;;;5154703;27;20034;-72
2023/01/03 05:53:58;;;;;;;5.55;2.25;;;;;;;;;;5154840;27;20554;-73
2023/01/03 05:56:23;;;;;;;7.38;2.67;;;;;;;;;;5154948;27;20497;-73
2023/01/03 05:58:49;;;;;;;7.10;2.80;;;;;;;;;;5154890;27;20083;-76
2023/01/03 06:01:15;;;;;;;7.30;2.88;;;;;;;;;;5154501;27;20107;-75
2023/01/03 06:03:45;;;;;;;5.78;2.80;;;;;;;;;;5154552;27;20502;-76
2023/01/03 06:06:12;;;;;;;7.70;2.67;;;;;;;;;;5154751;27;20038;-75
2023/01/03 06:08:37;;;;;;;5.40;2.33;;;;;;;;;;5154493;27;20105;-70
2023/01/03 06:11:07;;;;;;;8.32;2.70;;;;;;;;;;5154143;27;20058;-72
2023/01/03 06:13:32;;;;;;;7.53;2.50;;;;;;;;;;5154435;27;20018;-73
2023/01/03 06:18:55;;;;;;;7.57;2.50;;;;;;;;;;5154615;27;20213;-73
2023/01/03 06:21:20;;;;;;;7.35;2.65;;;;;;;;;;5154265;27;20115;-75
2023/01/03 06:23:46;;;;;;;5.65;2.28;;;;;;;;;;5154161;27;20043;-73
2023/01/03 06:26:16;;;;;;;8.18;2.55;;;;;;;;;;5154010;27;20030;-72
2023/01/03 06:28:41;;;;;;;8.95;2.65;;;;;;;;;;5154337;27;20492;-73
2023/01/03 06:31:07;;;;;;;5.97;2.70;;;;;;;;;;5153840;27;20106;-72
2023/01/03 06:33:33;;;;;;;7.50;2.85;;;;;;;;;;5153949;27;20027;-75
2023/01/03 06:36:04;;;;;;;8.10;2.88;;;;;;;;;;5154277;27;20025;-75
2023/01/03 06:38:29;;;;;;;7.40;2.80;;;;;;;;;;5154481;27;20054;-75
2023/01/03 06:40:55;;;;;;;6.72;2.72;;;;;;;;;;5154947;27;20073;-74
2023/01/03 06:43:20;;;;;;;8.80;2.80;;;;;;;;;;5154796;27;20035;-73
2023/01/03 06:54:01;;;;;;;8.52;3.22;;;;;;;;;;5153979;27;20230;-72
2023/01/03 06:56:27;;;;;;;8.32;2.90;;;;;;;;;;5153544;27;20153;-74
2023/01/03 06:58:52;;;;;;;6.03;2.63;;;;;;;;;;5153583;27;20110;-73
2023/01/03 07:01:19;;;;;;;10.32;3.10;;;;;;;;;;5153408;27;20077;-75
2023/01/03 07:03:44;;;;;;;9.98;3.60;;;;;;;;;;5153085;27;20031;-73
2023/01/03 07:06:10;;;;;;;12.80;4.43;;;;;;;;;;5152972;27;20027;-73
2023/01/03 07:08:35;;;;;;;9.63;3.90;;;;;;;;;;5153102;27;20109;-74
2023/01/03 07:11:01;;;;;;;10.05;4.40;;;;;;;;;;5153008;27;20023;-73
2023/01/03 07:16:15;;;;;;;11.05;4.50;;;;;;;;;;5153454;27;20053;-75
2023/01/03 07:18:40;;;;;;;12.40;4.40;;;;;;;;;;5153380;27;20040;-74
2023/01/03 07:21:06;;;;;;;14.80;4.90;;;;;;;;;;5152932;27;20026;-75
2023/01/03 07:23:32;;;;;;;13.32;4.93;;;;;;;;;;5152886;27;20105;-75
2023/01/03 07:25:57;;;;;;;13.85;4.63;;;;;;;;;;5152931;27;20098;-73
2023/01/03 07:28:23;;;;;;;9.57;4.15;;;;;;;;;;5152332;27;20050;-73
2023/01/03 07:30:48;;;;;;;10.23;4.75;;;;;;;;;;5152669;27;20023;-74
2023/01/03 07:33:15;;;;;;;11.52;4.50;;;;;;;;;;5152649;27;20075;-73
2023/01/03 07:35:41;;;;;;;12.43;4.93;;;;;;;;;;5152863;27;20075;-75
2023/01/03 07:38:08;;;;;;;14.57;5.32;;;;;;;;;;5152839;27;20030;-74
2023/01/03 07:40:33;;;;;;;15.23;5.00;;;;;;;;;;5152585;27;20072;-74
2023/01/03 07:45:43;;;;;;;10.57;4.47;;;;;;;;;;5152742;27;20534;-74
2023/01/03 07:48:09;;;;;;;10.90;5.35;;;;;;;;;;5152223;27;20501;-71
2023/01/03 07:50:36;;;;;;;15.80;6.18;;;;;;;;;;5152229;27;20509;-74
2023/01/03 07:53:03;;;;;;;11.65;5.55;;;;;;;;;;5152412;27;20027;-74
2023/01/03 07:55:28;;;;;;;17.58;7.00;;;;;;;;;;5152460;27;20027;-74
2023/01/03 07:57:55;;;;;;;17.55;7.00;;;;;;;;;;5152367;27;20015;-76
2023/01/03 08:00:20;;;;;;;19.23;7.90;;;;;;;;;;5152342;27;20022;-75
2023/01/03 08:02:46;;;;;;;15.52;7.35;;;;;;;;;;5150986;27;20045;-74
2023/01/03 08:05:11;;;;;;;17.23;6.82;;;;;;;;;;5152147;27;20023;-76
2023/01/03 08:07:37;;;;;;;14.15;5.95;;;;;;;;;;5151701;27;20041;-76
2023/01/03 08:15:30;;;;;;;16.17;6.10;;;;;;;;;;5152233;27;20390;-75
2023/01/03 08:17:56;;;;;;;13.48;6.07;;;;;;;;;;5152342;27;20015;-76
2023/01/03 08:20:21;;;;;;;14.15;5.75;;;;;;;;;;5151799;27;20397;-69
2023/01/03 08:22:46;;;;;;;13.13;4.68;;;;;;;;;;5151631;27;20102;-68
2023/01/03 08:25:12;;;;;;;8.75;4.72;;;;;;;;;;5151905;27;20053;-70
2023/01/03 08:27:37;;;;;;;13.00;4.97;;;;;;;;;;5151998;27;20018;-70
2023/01/03 08:30:03;;;;;;;11.45;4.15;;;;;;;;;;5152095;27;20156;-69
2023/01/03 08:32:31;;;;;;;11.63;4.50;;;;;;;;;;5151922;27;20027;-71
2023/01/03 08:34:56;;;;;;;9.95;4.03;;;;;;;;;;5151945;27;20027;-68
2023/01/03 08:37:22;;;;;;;11.38;4.20;;;;;;;;;;5152072;27;20022;-69
2023/01/03 08:39:52;;;;;;;9.85;4.30;;;;;;;;;;5151237;27;20488;-69
2023/01/03 08:42:22;;;;;;;10.35;5.00;;;;;;;;;;5156038;27;20130;-68
2023/01/03 08:44:49;;;;;;;12.35;4.43;;;;;;;;;;5155858;27;20039;-68
2023/01/03 08:47:15;;;;;;;11.45;4.65;;;;;;;;;;5155939;27;20029;-68
2023/01/03 08:49:41;;;;;;;12.20;4.70;;;;;;;;;;5155812;27;20123;-68
2023/01/03 08:52:07;;;;;;;12.23;5.05;;;;;;;;;;5155806;27;20026;-68
2023/01/03 08:54:32;;;;;;;10.23;4.60;;;;;;;;;;5155999;27;20541;-67
2023/01/03 08:56:57;;;;;;;9.82;3.90;;;;;;;;;;5155755;27;20106;-70
2023/01/03 08:59:23;;;;;;;9.55;4.10;;;;;;;;;;5155678;27;20030;-69
2023/01/03 09:01:48;;;;;;;6.78;3.95;;;;;;;;;;5155469;27;20037;-69
2023/01/03 09:04:13;;;;;;;10.10;3.70;;;;;;;;;;5155600;27;20067;-69
2023/01/03 09:06:39;;;;;;;9.45;3.80;;;;;;;;;;5155481;27;20610;-69
2023/01/03 09:09:06;;;;;;;8.43;4.03;;;;;;;;;;5155891;27;20062;-68
2023/01/03 09:11:31;;;;;;;7.82;3.63;;;;;;;;;;5155377;27;20023;-68
2023/01/03 09:13:57;;;;;;;10.90;4.40;;;;;;;;;;5155590;27;20023;-68
2023/01/03 09:16:22;;;;;;;11.50;4.30;;;;;;;;;;5155492;27;20064;-71
2023/01/03 09:18:47;;;;;;;9.45;4.07;;;;;;;;;;5155136;27;20053;-69
2023/01/03 09:21:13;;;;;;;10.65;3.85;;;;;;;;;;5155029;27;20071;-72
2023/01/03 09:23:38;;;;;;;9.75;3.85;;;;;;;;;;5155465;27;20038;-70
2023/01/03 09:26:05;;;;;;;8.63;3.22;;;;;;;;;;5155670;27;20026;-74
2023/01/03 09:28:30;;;;;;;13.52;4.57;;;;;;;;;;5153959;27;20103;-76
2023/01/03 09:30:56;;;;;;;11.82;3.97;;;;;;;;;;5155118;27;20054;-73
2023/01/03 09:33:21;;;;;;;8.13;3.00;;;;;;;;;;5154960;27;20126;-75
2023/01/03 09:35:47;;;;;;;8.93;3.30;;;;;;;;;;5154903;27;20030;-70
2023/01/03 09:38:12;;;;;;;9.68;3.22;;;;;;;;;;5154940;27;20095;-71
2023/01/03 09:40:40;;;;;;;10.30;3.22;;;;;;;;;;5154980;27;20030;-71
2023/01/03 09:43:14;;;;;;;9.50;3.47;;;;;;;;;;5154770;27;20048;-74
2023/01/03 09:45:48;;;;;;;9.40;3.00;;;;;;;;;;5153891;27;20023;-73
2023/01/03 09:48:19;;;;;;;7.35;2.88;;;;;;;;;;5153409;27;20019;-75
2023/01/03 09:50:45;;;;;;;7.50;3.53;;;;;;;;;;5153196;27;20023;-74
2023/01/03 10:05:20;;;;;;;8.65;4.07;;;;;;;;;;5153468;27;20485;-72
2023/01/03 10:08:03;;;;;;;8.57;4.13;;;;;;;;;;5153406;27;20527;-74
2023/01/03 10:10:50;;;;;;;12.85;3.97;;;;;;;;;;5152061;27;20091;-74
2023/01/03 10:13:27;;;;;;;9.00;3.80;;;;;;;;;;5152819;27;20466;-75
2023/01/03 10:16:08;;;;;;;7.85;3.40;;;;;;;;;;5153257;27;20019;-73
2023/01/03 10:18:46;;;;;;;10.95;3.55;;;;;;;;;;5151793;27;20224;-73
2023/01/03 10:21:50;;;;;;;9.13;3.90;;;;;;;;;;5151757;27;20027;-74
2023/01/03 10:24:27;;;;;;;9.90;3.50;;;;;;;;;;5152927;27;20034;-74
2023/01/03 10:27:02;;;;;;;7.10;2.97;;;;;;;;;;5153044;27;20019;-74
2023/01/03 10:29:28;;;;;;;8.93;3.10;;;;;;;;;;5151431;27;20066;-75
2023/01/03 10:32:16;;;;;;;9.48;3.05;;;;;;;;;;5152287;27;20486;-75
2023/01/03 10:34:42;;;;;;;7.15;2.60;;;;;;;;;;5152543;27;20652;-74
2023/01/03 10:37:18;;;;;;;7.75;3.20;;;;;;;;;;5152698;27;20026;-74
2023/01/03 10:39:43;;;;;;;6.50;3.00;;;;;;;;;;5153032;27;20520;-74
2023/01/03 10:42:19;;;;;;;6.38;2.90;;;;;;;;;;5152721;27;20055;-76
2023/01/03 10:45:00;;;;;;;6.38;2.90;;;;;;;;;;5113982;27;1105399;-75
2023/01/03 10:47:26;;;;;;;7.20;2.80;;;;;;;;;;5153672;27;20046;-75
2023/01/03 10:50:00;;;;;;;11.00;3.08;;;;;;;;;;5153368;27;20110;-75
2023/01/03 10:52:40;;;;;;;9.77;3.10;;;;;;;;;;5153261;27;20052;-75
2023/01/03 10:55:15;;;;;;;8.23;2.90;;;;;;;;;;5153647;27;20113;-75
2023/01/03 10:57:56;;;;;;;9.00;3.00;;;;;;;;;;5153463;27;20023;-75
2023/01/03 11:00:34;;;;;;;9.32;2.67;;;;;;;;;;5153589;27;20050;-74
2023/01/03 11:03:08;;;;;;;8.88;3.38;;;;;;;;;;5152178;27;20075;-70
2023/01/03 11:05:34;;;;;;;9.80;3.08;;;;;;;;;;5153277;27;20493;-75
2023/01/03 11:08:05;;;;;;;7.05;2.90;;;;;;;;;;5153245;27;20031;-73
2023/01/03 11:10:50;;;;;;;4.57;2.35;;;;;;;;;;5153194;27;20026;-69
2023/01/03 11:13:33;;;;;;;5.95;2.80;;;;;;;;;;5152939;27;20037;-74
2023/01/03 11:16:01;;;;;;;9.70;2.97;;;;;;;;;;5153283;27;20030;-74
2023/01/03 11:18:28;;;;;;;5.55;2.60;;;;;;;;;;5152968;27;20023;-75
2023/01/03 11:21:06;;;;;;;7.05;2.55;;;;;;;;;;5153120;27;20042;-72
2023/01/03 11:24:08;;;;;;;6.18;2.70;;;;;;;;;;5152859;27;20482;-75
2023/01/03 11:26:50;;;;;;;4.50;2.08;;;;;;;;;;5153064;27;20649;-72
2023/01/03 11:29:34;;;;;;;4.78;2.20;;;;;;;;;;5152866;27;20401;-73
2023/01/03 11:31:59;;;;;;;4.93;2.22;;;;;;;;;;5151187;27;20033;-76
2023/01/03 11:34:36;;;;;;;5.93;2.15;;;;;;;;;;5152799;27;20022;-73
2023/01/03 11:37:27;;;;;;;7.03;2.65;;;;;;;;;;5152701;27;20483;-69
2023/01/03 11:40:01;;;;;;;5.30;2.40;;;;;;;;;;5152805;27;20022;-70
2023/01/03 11:42:41;;;;;;;8.63;2.50;;;;;;;;;;5151165;27;20520;-72
2023/01/03 11:45:44;;;;;;;5.95;2.80;;;;;;;;;;5152502;27;20039;-73
2023/01/03 11:48:21;;;;;;;11.02;3.05;;;;;;;;;;5150871;27;20514;-72
2023/01/03 11:51:06;;;;;;;7.25;3.22;;;;;;;;;;5151146;27;20026;-72
2023/01/03 11:53:54;;;;;;;14.95;3.75;;;;;;;;;;5152182;27;20023;-70
2023/01/03 11:56:43;;;;;;;7.95;3.15;;;;;;;;;;5152418;27;20030;-69
2023/01/03 11:59:44;;;;;;;9.52;3.30;;;;;;;;;;5152673;27;20026;-68
2023/01/03 12:02:37;;;;;;;8.18;3.50;;;;;;;;;;5152463;27;20018;-67
2023/01/03 12:05:23;;;;;;;8.27;3.50;;;;;;;;;;5152430;27;20077;-71
2023/01/03 12:08:03;;;;;;;7.63;3.17;;;;;;;;;;5151027;27;20022;-68
2023/01/03 12:10:46;;;;;;;6.83;3.37;;;;;;;;;;5152374;27;20030;-74
2023/01/03 12:13:33;;;;;;;6.75;2.90;;;;;;;;;;5151878;27;20045;-69
2023/01/03 12:16:18;;;;;;;6.28;2.55;;;;;;;;;;5152571;27;20499;-69
2023/01/03 12:19:00;;;;;;;8.13;2.58;;;;;;;;;;5152286;27;20066;-74
2023/01/03 12:21:43;;;;;;;5.43;2.42;;;;;;;;;;5152279;27;20026;-74
2023/01/03 12:24:34;;;;;;;5.43;2.10;;;;;;;;;;5152139;27;20079;-74
2023/01/03 12:27:07;;;;;;;7.80;1.80;;;;;;;;;;5151930;27;20026;-74
2023/01/03 12:29:33;;;;;;;5.70;1.60;;;;;;;;;;5150570;27;20034;-73
2023/01/03 12:32:05;;;;;;;8.18;1.70;;;;;;;;;;5151717;27;20022;-75
2023/01/03 12:34:38;;;;;;;8.90;2.13;;;;;;;;;;5151847;27;20026;-73
2023/01/03 12:37:25;;;;;;;5.50;1.60;;;;;;;;;;5152100;27;20015;-75
2023/01/03 12:40:01;;;;;;;8.05;1.80;;;;;;;;;;5152183;27;20033;-75
2023/01/03 12:42:48;;;;;;;3.78;1.70;;;;;;;;;;5151704;27;20104;-74
2023/01/03 12:45:38;;;;;;;5.07;1.80;;;;;;;;;;5151710;27;20061;-71
2023/01/03 12:48:12;;;;;;;5.30;1.95;;;;;;;;;;5151600;27;20117;-75
2023/01/03 12:50:48;;;;;;;5.88;1.83;;;;;;;;;;5151639;27;20159;-75
2023/01/03 12:53:36;;;;;;;7.45;1.95;;;;;;;;;;5150051;27;20483;-74
2023/01/03 12:56:19;;;;;;;5.93;1.65;;;;;;;;;;5151918;27;20035;-75
2023/01/03 12:59:15;;;;;;;3.50;1.58;;;;;;;;;;5151768;27;20574;-75
2023/01/03 13:01:57;;;;;;;7.90;1.67;;;;;;;;;;5151591;27;20055;-73
2023/01/03 13:04:23;;;;;;;5.28;1.50;;;;;;;;;;5151804;27;20035;-75
2023/01/03 13:06:54;;;;;;;3.65;1.40;;;;;;;;;;5151582;27;20023;-73
2023/01/03 13:09:30;;;;;;;3.95;1.60;;;;;;;;;;5151614;27;20030;-76
2023/01/03 13:12:01;;;;;;;5.68;1.80;;;;;;;;;;5151522;27;20056;-73
2023/01/03 13:14:27;;;;;;;5.38;1.73;;;;;;;;;;5151482;27;20042;-74
2023/01/03 13:17:05;;;;;;;5.22;1.80;;;;;;;;;;5151771;27;20025;-73
2023/01/03 13:19:34;;;;;;;4.03;1.50;;;;;;;;;;5151552;27;20030;-74
2023/01/03 13:22:01;;;;;;;5.20;1.30;;;;;;;;;;5152036;27;20034;-71
2023/01/03 13:24:44;;;;;;;4.95;1.45;;;;;;;;;;5151225;27;20019;-73
2023/01/03 13:27:35;;;;;;;5.88;1.20;;;;;;;;;;5153998;27;20026;-75
2023/01/03 13:30:02;;;;;;;4.28;1.10;;;;;;;;;;5147263;27;20042;-73
2023/01/03 13:32:29;;;;;;;4.95;1.52;;;;;;;;;;5154867;27;20410;-75
2023/01/03 13:34:57;;;;;;;3.97;1.50;;;;;;;;;;5155173;27;20026;-73
2023/01/03 13:37:25;;;;;;;6.22;1.92;;;;;;;;;;5155173;27;20046;-73
2023/01/03 13:39:50;;;;;;;4.60;1.67;;;;;;;;;;5155183;27;20069;-74
2023/01/03 13:42:27;;;;;;;5.50;1.60;;;;;;;;;;5155074;27;20439;-72
2023/01/03 13:45:14;;;;;;;4.30;1.40;;;;;;;;;;5154725;27;20047;-70
2023/01/03 13:47:42;;;;;;;4.28;1.38;;;;;;;;;;5154674;27;20031;-71
2023/01/03 13:50:23;;;;;;;5.35;1.48;;;;;;;;;;5154624;27;20026;-72
2023/01/03 13:53:03;;;;;;;11.23;1.67;;;;;;;;;;5154693;27;20524;-69
2023/01/03 13:55:46;;;;;;;4.68;1.90;;;;;;;;;;5154896;27;20050;-69
2023/01/03 13:58:26;;;;;;;6.25;1.80;;;;;;;;;;5154893;27;20047;-69
2023/01/03 14:00:57;;;;;;;3.97;1.50;;;;;;;;;;5154934;27;20074;-68
2023/01/03 14:04:01;;;;;;;5.38;1.70;;;;;;;;;;5154846;27;20026;-68
2023/01/03 14:06:30;;;;;;;6.55;1.92;;;;;;;;;;5135043;27;20034;-72
2023/01/03 14:09:13;;;;;;;5.68;2.00;;;;;;;;;;5154469;27;20026;-73
2023/01/03 14:12:03;;;;;;;8.18;2.00;;;;;;;;;;5154384;27;20031;-75
2023/01/03 14:14:34;;;;;;;9.47;1.93;;;;;;;;;;5154068;27;20040;-74
2023/01/03 14:17:02;;;;;;;5.60;1.63;;;;;;;;;;5154654;27;20311;-75
2023/01/03 14:19:31;;;;;;;3.58;1.55;;;;;;;;;;5154480;27;20027;-75
2023/01/03 14:22:08;;;;;;;5.40;1.70;;;;;;;;;;5154284;27;20029;-73
2023/01/03 14:24:35;;;;;;;4.25;1.73;;;;;;;;;;5153869;27;20478;-74
2023/01/03 14:27:15;;;;;;;5.57;1.70;;;;;;;;;;5154195;27;20097;-73
2023/01/03 14:29:46;;;;;;;6.03;1.80;;;;;;;;;;5153963;27;20027;-72
2023/01/03 14:32:24;;;;;;;7.03;2.00;;;;;;;;;;5153997;27;20041;-73
2023/01/03 14:34:49;;;;;;;5.43;1.80;;;;;;;;;;5153712;27;20097;-74
2023/01/03 14:37:19;;;;;;;6.63;2.33;;;;;;;;;;5153202;27;20541;-74
2023/01/03 14:40:03;;;;;;;4.53;1.90;;;;;;;;;;5152418;27;20375;-74
2023/01/03 14:42:28;;;;;;;11.40;2.10;;;;;;;;;;5153803;27;20516;-74
2023/01/03 14:44:59;;;;;;;5.15;1.75;;;;;;;;;;5153396;27;20067;-74
2023/01/03 14:47:32;;;;;;;5.70;2.10;;;;;;;;;;5153777;27;20046;-71
2023/01/03 14:49:57;;;;;;;5.32;1.92;;;;;;;;;;5153443;27;20505;-73
2023/01/03 14:52:31;;;;;;;6.25;2.00;;;;;;;;;;5153760;27;20084;-71
2023/01/03 14:55:00;;;;;;;6.38;2.20;;;;;;;;;;5153505;27;20545;-73
2023/01/03 14:57:27;;;;;;;6.90;2.17;;;;;;;;;;5153799;27;20022;-72
2023/01/03 14:59:56;;;;;;;5.57;1.85;;;;;;;;;;5153682;27;20019;-73
2023/01/03 15:02:23;;;;;;;5.85;2.10;;;;;;;;;;5153608;27;20581;-74
2023/01/03 15:04:51;;;;;;;7.00;2.25;;;;;;;;;;5153072;27;20490;-72
2023/01/03 15:07:33;;;;;;;6.90;2.30;;;;;;;;;;5153370;27;20079;-71
2023/01/03 15:10:10;;;;;;;5.53;2.00;;;;;;;;;;5153462;27;20027;-71
2023/01/03 15:12:44;;;;;;;7.25;2.30;;;;;;;;;;5151790;27;20030;-73
2023/01/03 15:15:23;;;;;;;6.07;2.13;;;;;;;;;;5153366;27;20034;-73
2023/01/03 15:17:51;;;;;;;8.25;2.33;;;;;;;;;;5153388;27;20029;-74
2023/01/03 15:20:21;;;;;;;9.20;2.17;;;;;;;;;;5153217;27;20015;-74
2023/01/03 15:22:46;;;;;;;6.00;2.22;;;;;;;;;;5153091;27;20038;-74
2023/01/03 15:25:16;;;;;;;5.15;2.08;;;;;;;;;;5152973;27;20042;-75
2023/01/03 15:27:44;;;;;;;6.70;2.10;;;;;;;;;;5152946;27;20019;-74
2023/01/03 15:30:21;;;;;;;5.28;1.92;;;;;;;;;;5152955;27;20260;-75
2023/01/03 15:32:49;;;;;;;4.40;2.00;;;;;;;;;;5152864;27;20624;-73
2023/01/03 15:35:26;;;;;;;5.20;2.00;;;;;;;;;;5153012;27;20027;-76
2023/01/03 15:37:53;;;;;;;5.50;2.20;;;;;;;;;;5152859;27;20473;-75
2023/01/03 15:40:19;;;;;;;5.22;2.00;;;;;;;;;;5152870;27;20031;-74
2023/01/03 15:45:36;;;;;;;7.00;2.50;;;;;;;;;;5152704;27;20049;-74
2023/01/03 15:48:04;;;;;;;6.45;2.15;;;;;;;;;;5152469;27;20026;-72
2023/01/03 15:50:40;;;;;;;6.38;2.00;;;;;;;;;;5152075;27;20027;-73
2023/01/03 15:53:05;;;;;;;4.63;2.20;;;;;;;;;;5152578;27;20114;-72
2023/01/03 15:55:31;;;;;;;5.40;1.92;;;;;;;;;;5152548;27;20601;-74
2023/01/03 15:57:56;;;;;;;5.15;2.20;;;;;;;;;;5152535;27;20027;-73
2023/01/03 16:00:24;;;;;;;3.97;2.03;;;;;;;;;;5152502;27;20072;-75
2023/01/03 16:02:50;;;;;;;5.45;2.28;;;;;;;;;;5152374;27;20072;-75
2023/01/03 16:05:16;;;;;;;8.80;2.28;;;;;;;;;;5151610;27;20015;-75
2023/01/03 16:07:42;;;;;;;6.80;2.13;;;;;;;;;;5152358;27;20106;-74
2023/01/03 16:10:10;;;;;;;7.20;2.38;;;;;;;;;;5152355;27;20111;-73
2023/01/03 16:12:36;;;;;;;6.82;2.15;;;;;;;;;;5152241;27;20461;-75